createdAt,value
2023-05-16T00:00:45.552Z,66.25
2023-05-16T00:01:45.526Z,66.84
2023-05-16T00:02:45.582Z,67.26
2023-05-16T00:03:45.521Z,67.13
2023-05-16T00:04:45.382Z,67.02
2023-05-16T00:05:45.400Z,66.97
2023-05-16T00:06:45.266Z,66.71
2023-05-16T00:07:45.234Z,66.49
2023-05-16T00:08:45.197Z,66.41
2023-05-16T00:09:45.861Z,66.24
2023-05-16T00:10:45.145Z,66.30
2023-05-16T00:11:45.198Z,66.38
2023-05-16T00:12:45.077Z,66.29
2023-05-16T00:13:45.090Z,66.33
2023-05-16T00:14:45.045Z,66.31
2023-05-16T00:15:45.063Z,66.48
2023-05-16T00:16:44.980Z,66.34
2023-05-16T00:17:44.942Z,66.30
2023-05-16T00:18:44.921Z,66.19
2023-05-16T00:19:44.852Z,66.28
2023-05-16T00:20:44.877Z,66.37
2023-05-16T00:21:45.355Z,66.33
2023-05-16T00:22:44.713Z,66.38
2023-05-16T00:23:44.736Z,66.26
2023-05-16T00:24:44.647Z,66.17
2023-05-16T00:25:44.636Z,66.11
2023-05-16T00:26:44.591Z,66.04
2023-05-16T00:27:44.555Z,65.94
2023-05-16T00:28:44.542Z,65.84
2023-05-16T00:29:44.587Z,65.79
2023-05-16T00:30:44.666Z,65.82
2023-05-16T00:31:44.749Z,65.84
2023-05-16T00:32:44.649Z,66.07
2023-05-16T00:33:44.601Z,66.33
2023-05-16T00:34:46.601Z,66.37
2023-05-16T00:35:44.694Z,66.42
2023-05-16T00:36:44.666Z,66.66
2023-05-16T00:37:45.356Z,66.37
2023-05-16T00:38:44.703Z,66.23
2023-05-16T00:39:44.709Z,66.13
2023-05-16T00:40:44.787Z,65.83
2023-05-16T00:41:44.734Z,65.72
2023-05-16T00:42:44.733Z,65.87
2023-05-16T00:43:44.679Z,65.95
2023-05-16T00:44:44.686Z,65.95
2023-05-16T00:45:44.696Z,65.69
2023-05-16T00:46:44.636Z,65.76
2023-05-16T00:47:44.675Z,65.74
2023-05-16T00:48:44.624Z,65.67
2023-05-16T00:49:44.666Z,65.50
2023-05-16T00:50:44.677Z,65.66
2023-05-16T00:51:44.698Z,65.71
2023-05-16T00:52:44.700Z,65.79
2023-05-16T00:53:44.739Z,65.95
2023-05-16T00:54:44.725Z,66.11
2023-05-16T00:55:44.716Z,66.18
2023-05-16T00:56:44.735Z,66.39
2023-05-16T00:57:44.717Z,66.50
2023-05-16T00:58:44.701Z,66.60
2023-05-16T00:59:44.683Z,66.93
2023-05-16T01:00:46.543Z,66.88
2023-05-16T01:01:44.695Z,66.79
2023-05-16T01:02:44.726Z,66.67
2023-05-16T01:03:44.651Z,66.55
2023-05-16T01:04:44.505Z,66.39
2023-05-16T01:05:44.562Z,66.29
2023-05-16T01:06:44.439Z,66.36
2023-05-16T01:07:44.401Z,66.28
2023-05-16T01:08:44.414Z,66.14
2023-05-16T01:09:44.331Z,66.17
2023-05-16T01:10:44.281Z,65.90
2023-05-16T01:11:44.251Z,65.86
2023-05-16T01:12:44.213Z,65.80
2023-05-16T01:13:44.179Z,65.90
2023-05-16T01:14:44.137Z,65.86
2023-05-16T01:15:44.160Z,65.89
2023-05-16T01:16:44.050Z,65.85
2023-05-16T01:17:44.044Z,66.00
2023-05-16T01:18:44.031Z,66.13
2023-05-16T01:19:44.093Z,66.11
2023-05-16T01:20:44.024Z,66.19
2023-05-16T01:21:44.036Z,66.26
2023-05-16T01:22:44.045Z,66.21
2023-05-16T01:23:44.087Z,66.29
2023-05-16T01:24:44.059Z,66.10
2023-05-16T01:25:44.094Z,66.08
2023-05-16T01:26:44.102Z,66.36
2023-05-16T01:27:44.061Z,66.27
2023-05-16T01:28:44.075Z,66.41
2023-05-16T01:29:44.033Z,66.33
2023-05-16T01:30:44.046Z,66.40
2023-05-16T01:31:44.102Z,66.51
2023-05-16T01:32:44.235Z,66.49
2023-05-16T01:33:44.038Z,66.32
2023-05-16T01:34:44.176Z,66.23
2023-05-16T01:35:44.094Z,66.38
2023-05-16T01:36:44.043Z,66.58
2023-05-16T01:37:44.135Z,66.42
2023-05-16T01:38:43.986Z,66.43
2023-05-16T01:39:44.012Z,66.60
2023-05-16T01:40:44.030Z,66.42
2023-05-16T01:41:43.990Z,66.23
2023-05-16T01:42:43.965Z,66.55
2023-05-16T01:43:43.912Z,66.21
2023-05-16T01:44:43.888Z,65.82
2023-05-16T01:45:43.861Z,65.81
2023-05-16T01:46:44.451Z,65.80
2023-05-16T01:47:43.809Z,65.72
2023-05-16T01:48:43.728Z,65.68
2023-05-16T01:49:43.678Z,65.73
2023-05-16T01:50:43.702Z,65.64
2023-05-16T01:51:43.596Z,65.51
2023-05-16T01:52:43.567Z,65.82
2023-05-16T01:53:43.533Z,65.93
2023-05-16T01:54:43.513Z,66.02
2023-05-16T01:55:43.551Z,66.22
2023-05-16T01:56:43.567Z,66.35
2023-05-16T01:57:43.596Z,66.42
2023-05-16T01:58:43.653Z,66.49
2023-05-16T01:59:43.534Z,66.73
2023-05-16T02:00:43.598Z,67.16
2023-05-16T02:01:43.717Z,67.73
2023-05-16T02:02:43.656Z,67.88
2023-05-16T02:03:43.633Z,67.96
2023-05-16T02:04:43.619Z,68.20
2023-05-16T02:05:43.647Z,68.17
2023-05-16T02:06:43.682Z,68.28
2023-05-16T02:07:43.733Z,68.23
2023-05-16T02:08:43.748Z,68.23
2023-05-16T02:09:43.730Z,68.07
2023-05-16T02:10:43.759Z,68.21
2023-05-16T02:11:43.778Z,68.14
2023-05-16T02:12:43.812Z,68.36
2023-05-16T02:13:43.819Z,68.72
2023-05-16T02:14:43.833Z,68.90
2023-05-16T02:15:43.907Z,68.94
2023-05-16T02:16:43.915Z,69.13
2023-05-16T02:17:43.938Z,69.44
2023-05-16T02:18:44.022Z,69.50
2023-05-16T02:19:43.973Z,69.45
2023-05-16T02:20:43.986Z,69.24
2023-05-16T02:21:44.000Z,69.23
2023-05-16T02:22:44.015Z,69.40
2023-05-16T02:23:44.007Z,69.38
2023-05-16T02:24:44.039Z,69.51
2023-05-16T02:25:44.043Z,69.61
2023-05-16T02:26:44.056Z,69.58
2023-05-16T02:27:44.075Z,69.41
2023-05-16T02:28:44.127Z,69.20
2023-05-16T02:29:44.105Z,69.23
2023-05-16T02:30:44.105Z,69.63
2023-05-16T02:31:44.119Z,69.77
2023-05-16T02:32:44.143Z,69.65
2023-05-16T02:33:44.175Z,69.02
2023-05-16T02:34:44.157Z,69.19
2023-05-16T02:35:44.182Z,69.80
2023-05-16T02:36:44.161Z,70.16
2023-05-16T02:37:44.185Z,70.30
2023-05-16T02:38:44.232Z,70.19
2023-05-16T02:39:44.192Z,70.34
2023-05-16T02:40:44.230Z,70.26
2023-05-16T02:41:44.235Z,70.44
2023-05-16T02:42:44.280Z,70.45
2023-05-16T02:43:46.248Z,70.50
2023-05-16T02:44:44.529Z,70.60
2023-05-16T02:45:44.567Z,70.76
2023-05-16T02:46:45.452Z,71.22
2023-05-16T02:47:44.530Z,71.47
2023-05-16T02:48:44.522Z,71.52
2023-05-16T02:49:44.590Z,71.70
2023-05-16T02:50:44.575Z,71.54
2023-05-16T02:51:44.594Z,71.52
2023-05-16T02:52:44.619Z,71.37
2023-05-16T02:53:44.588Z,71.65
2023-05-16T02:54:45.389Z,71.69
2023-05-16T02:57:08.303Z,71.43
2023-05-16T02:58:04.552Z,71.09
2023-05-16T02:59:04.566Z,70.60
2023-05-16T03:00:04.619Z,70.58
2023-05-16T03:01:04.620Z,70.63
2023-05-16T03:02:04.778Z,70.49
2023-05-16T03:03:04.766Z,70.73
2023-05-16T03:04:04.815Z,70.92
2023-05-16T03:05:04.718Z,70.92
2023-05-16T03:06:04.759Z,71.25
2023-05-16T03:07:04.769Z,71.57
2023-05-16T03:08:04.796Z,72.17
2023-05-16T03:09:04.809Z,72.60
2023-05-16T03:10:04.921Z,72.98
2023-05-16T03:11:04.908Z,72.76
2023-05-16T03:12:06.001Z,72.84
2023-05-16T03:13:04.947Z,72.66
2023-05-16T03:14:04.983Z,72.41
2023-05-16T03:15:05.000Z,72.16
2023-05-16T03:16:05.113Z,72.10
2023-05-16T03:17:05.058Z,72.05
2023-05-16T03:18:05.139Z,72.06
2023-05-16T03:19:05.191Z,72.09
2023-05-16T03:20:05.180Z,72.12
2023-05-16T03:21:05.234Z,72.32
2023-05-16T03:22:05.304Z,72.54
2023-05-16T03:23:05.376Z,72.39
2023-05-16T03:24:05.508Z,72.24
2023-05-16T03:25:05.535Z,72.20
2023-05-16T03:26:05.607Z,72.41
2023-05-16T03:27:05.665Z,72.15
2023-05-16T03:28:05.730Z,72.08
2023-05-16T03:29:05.800Z,71.98
2023-05-16T03:30:05.871Z,71.95
2023-05-16T03:31:06.007Z,72.19
2023-05-16T03:32:06.313Z,72.26
2023-05-16T03:33:06.141Z,72.53
2023-05-16T03:34:06.195Z,72.55
2023-05-16T03:35:06.326Z,72.63
2023-05-16T03:36:06.391Z,72.66
2023-05-16T03:37:06.468Z,72.59
2023-05-16T03:38:06.540Z,72.63
2023-05-16T03:39:06.630Z,72.45
2023-05-16T03:40:06.721Z,72.33
2023-05-16T03:41:06.885Z,72.64
2023-05-16T03:42:06.910Z,72.58
2023-05-16T03:43:06.967Z,72.62
2023-05-16T03:44:07.052Z,72.75
2023-05-16T03:45:07.117Z,72.84
2023-05-16T03:46:07.225Z,72.98
2023-05-16T03:47:07.289Z,72.96
2023-05-16T03:48:07.349Z,73.01
2023-05-16T03:49:07.304Z,73.15
2023-05-16T03:50:07.391Z,73.19
2023-05-16T03:51:07.408Z,73.03
2023-05-16T03:52:07.424Z,72.93
2023-05-16T03:53:07.456Z,73.07
2023-05-16T03:54:07.490Z,73.05
2023-05-16T03:55:07.526Z,72.99
2023-05-16T03:56:07.543Z,72.91
2023-05-16T03:57:07.593Z,72.76
2023-05-16T03:58:07.641Z,72.83
2023-05-16T03:59:07.649Z,72.94
2023-05-16T04:00:07.730Z,73.12
2023-05-16T04:01:07.721Z,73.43
2023-05-16T04:02:07.829Z,73.90
2023-05-16T04:03:07.824Z,73.95
2023-05-16T04:04:07.798Z,73.70
2023-05-16T04:05:07.855Z,73.37
2023-05-16T04:06:08.024Z,73.43
2023-05-16T04:07:07.888Z,73.51
2023-05-16T04:08:07.946Z,73.46
2023-05-16T04:09:07.984Z,73.54
2023-05-16T04:10:08.009Z,73.61
2023-05-16T04:11:08.054Z,73.55
2023-05-16T04:12:08.088Z,73.64
2023-05-16T04:13:08.146Z,73.78
2023-05-16T04:14:08.212Z,74.10
2023-05-16T04:15:08.286Z,74.40
2023-05-16T04:16:08.396Z,74.17
2023-05-16T04:17:08.564Z,73.97
2023-05-16T04:18:08.486Z,73.67
2023-05-16T04:19:08.557Z,73.57
2023-05-16T04:20:08.569Z,73.42
2023-05-16T04:21:08.638Z,73.55
2023-05-16T04:22:08.676Z,73.53
2023-05-16T04:23:08.718Z,73.44
2023-05-16T04:24:08.802Z,73.14
2023-05-16T04:25:08.854Z,73.01
2023-05-16T04:26:08.906Z,72.90
2023-05-16T04:28:13.864Z,73.08
2023-05-16T04:29:13.835Z,73.09
2023-05-16T04:30:13.837Z,73.16
2023-05-16T04:31:13.862Z,73.32
2023-05-16T04:32:13.821Z,73.42
2023-05-16T04:33:13.846Z,73.44
2023-05-16T04:34:13.785Z,73.60
2023-05-16T04:35:13.777Z,73.50
2023-05-16T04:36:13.780Z,73.72
2023-05-16T04:37:13.778Z,73.74
2023-05-16T04:38:13.758Z,73.63
2023-05-16T04:39:13.758Z,73.59
2023-05-16T04:40:13.761Z,73.59
2023-05-16T04:41:13.753Z,73.41
2023-05-16T04:42:13.827Z,73.32
2023-05-16T04:43:13.710Z,73.21
2023-05-16T04:44:13.658Z,73.40
2023-05-16T04:45:13.669Z,73.46
2023-05-16T04:46:13.697Z,73.39
2023-05-16T04:47:13.619Z,73.80
2023-05-16T04:48:13.605Z,74.21
2023-05-16T04:49:13.578Z,74.04
2023-05-16T04:50:13.581Z,73.70
2023-05-16T04:51:13.592Z,73.71
2023-05-16T04:52:13.532Z,73.67
2023-05-16T04:53:13.504Z,73.39
2023-05-16T04:54:13.476Z,73.29
2023-05-16T04:55:13.447Z,73.22
2023-05-16T04:56:13.421Z,73.48
2023-05-16T04:57:13.402Z,73.54
2023-05-16T04:58:13.364Z,73.49
2023-05-16T04:59:13.322Z,73.21
2023-05-16T05:00:13.291Z,73.10
2023-05-16T05:01:13.269Z,72.88
2023-05-16T05:02:13.305Z,72.73
2023-05-16T05:03:13.204Z,72.37
2023-05-16T05:04:13.130Z,72.14
2023-05-16T05:05:13.243Z,72.16
2023-05-16T05:06:13.068Z,72.15
2023-05-16T05:07:13.038Z,71.82
2023-05-16T05:08:13.007Z,71.87
2023-05-16T05:09:12.991Z,71.96
2023-05-16T05:10:12.994Z,71.81
2023-05-16T05:11:13.032Z,71.68
2023-05-16T05:12:13.011Z,72.09
2023-05-16T05:13:13.006Z,72.29
2023-05-16T05:14:13.011Z,72.15
2023-05-16T05:15:13.016Z,72.04
2023-05-16T05:16:13.052Z,71.68
2023-05-16T05:17:13.050Z,71.63
2023-05-16T05:18:13.081Z,71.66
2023-05-16T05:19:13.027Z,71.23
2023-05-16T05:20:13.007Z,71.23
2023-05-16T05:21:13.031Z,71.73
2023-05-16T05:22:13.020Z,71.41
2023-05-16T05:23:13.031Z,70.98
2023-05-16T05:24:13.059Z,71.22
2023-05-16T05:25:13.579Z,71.22
2023-05-16T05:26:13.083Z,71.20
2023-05-16T05:27:13.075Z,71.19
2023-05-16T05:28:13.115Z,70.94
2023-05-16T05:29:13.998Z,70.78
2023-05-16T05:30:13.090Z,70.97
2023-05-16T05:31:13.137Z,70.92
2023-05-16T05:32:13.092Z,70.75
2023-05-16T05:33:17.150Z,70.63
2023-05-16T05:34:13.056Z,70.55
2023-05-16T05:35:13.044Z,70.66
2023-05-16T05:36:12.991Z,70.65
2023-05-16T05:37:13.012Z,70.58
2023-05-16T05:38:12.924Z,70.49
2023-05-16T05:39:12.991Z,70.44
2023-05-16T05:40:12.849Z,70.53
2023-05-16T05:41:12.836Z,70.36
2023-05-16T05:42:13.589Z,70.51
2023-05-16T05:43:12.761Z,70.30
2023-05-16T05:44:13.586Z,69.95
2023-05-16T05:45:12.696Z,70.56
2023-05-16T05:46:12.739Z,70.36
2023-05-16T05:47:12.680Z,70.16
2023-05-16T05:48:12.774Z,70.17
2023-05-16T05:49:12.619Z,70.27
2023-05-16T05:50:12.583Z,70.50
2023-05-16T05:51:12.540Z,70.33
2023-05-16T05:52:12.516Z,70.56
2023-05-16T05:53:12.430Z,71.23
2023-05-16T05:54:12.373Z,71.16
2023-05-16T05:55:12.371Z,70.65
2023-05-16T05:56:12.386Z,70.30
2023-05-16T05:57:12.250Z,69.78
2023-05-16T05:58:12.244Z,69.57
2023-05-16T05:59:12.178Z,69.51
2023-05-16T06:00:13.104Z,69.37
2023-05-16T06:01:12.123Z,69.49
2023-05-16T06:02:12.680Z,69.50
2023-05-16T06:03:12.105Z,69.83
2023-05-16T06:04:12.186Z,69.61
2023-05-16T06:05:13.142Z,69.94
2023-05-16T06:06:12.160Z,70.53
2023-05-16T06:07:12.121Z,70.08
2023-05-16T06:08:12.141Z,70.01
2023-05-16T06:09:12.038Z,70.37
2023-05-16T06:10:12.163Z,70.14
2023-05-16T06:11:11.963Z,70.02
2023-05-16T06:12:12.989Z,69.60
2023-05-16T06:13:11.963Z,69.38
2023-05-16T06:14:11.899Z,69.11
2023-05-16T06:15:11.906Z,69.43
2023-05-16T06:16:11.823Z,69.10
2023-05-16T06:17:11.918Z,68.68
2023-05-16T06:18:11.886Z,68.52
2023-05-16T06:19:11.780Z,68.20
2023-05-16T06:20:11.702Z,67.85
2023-05-16T06:21:12.120Z,67.89
2023-05-16T06:22:11.643Z,67.26
2023-05-16T06:23:11.607Z,68.10
2023-05-16T06:24:11.535Z,67.74
2023-05-16T06:25:11.476Z,67.80
2023-05-16T06:26:11.919Z,67.72
2023-05-16T06:27:11.848Z,67.44
2023-05-16T06:28:11.383Z,67.07
2023-05-16T06:29:11.346Z,67.83
2023-05-16T06:30:11.361Z,68.19
2023-05-16T06:31:11.672Z,68.76
2023-05-16T06:32:13.353Z,68.54
2023-05-16T06:33:11.493Z,68.61
2023-05-16T06:34:11.406Z,68.26
2023-05-16T06:35:11.613Z,67.47
2023-05-16T06:36:11.489Z,67.62
2023-05-16T06:37:11.364Z,68.73
2023-05-16T06:38:11.264Z,69.08
2023-05-16T06:39:11.247Z,68.75
2023-05-16T06:40:11.271Z,68.03
2023-05-16T06:41:11.170Z,67.98
2023-05-16T06:42:11.383Z,67.66
2023-05-16T06:43:11.117Z,67.61
2023-05-16T06:44:11.357Z,67.02
2023-05-16T06:45:11.646Z,67.50
2023-05-16T06:46:11.076Z,67.32
2023-05-16T06:47:11.026Z,66.92
2023-05-16T06:48:11.109Z,66.42
2023-05-16T06:49:11.124Z,66.71
2023-05-16T06:50:11.041Z,66.57
2023-05-16T06:51:11.624Z,66.93
2023-05-16T06:52:11.624Z,67.20
2023-05-16T06:53:10.996Z,66.59
2023-05-16T06:54:11.021Z,66.01
2023-05-16T06:55:11.654Z,64.94
2023-05-16T06:56:11.031Z,64.66
2023-05-16T06:57:11.017Z,64.78
2023-05-16T06:58:11.588Z,65.27
2023-05-16T06:59:12.036Z,65.23
2023-05-16T07:00:11.035Z,64.77
2023-05-16T07:01:10.972Z,64.81
2023-05-16T07:02:10.956Z,64.87
2023-05-16T07:03:11.010Z,64.66
2023-05-16T07:04:10.998Z,63.98
2023-05-16T07:05:11.046Z,63.74
2023-05-16T07:06:10.883Z,63.46
2023-05-16T07:07:10.858Z,63.33
2023-05-16T07:08:10.827Z,62.80
2023-05-16T07:09:10.824Z,63.53
2023-05-16T07:10:10.791Z,62.91
2023-05-16T07:11:10.762Z,63.41
2023-05-16T07:12:10.787Z,63.37
2023-05-16T07:13:10.800Z,62.95
2023-05-16T07:14:10.791Z,63.46
2023-05-16T07:15:10.714Z,64.97
2023-05-16T07:16:10.766Z,65.00
2023-05-16T07:17:10.796Z,64.27
2023-05-16T07:18:10.734Z,64.08
2023-05-16T07:19:10.790Z,64.19
2023-05-16T07:20:10.619Z,63.78
2023-05-16T07:21:10.643Z,63.77
2023-05-16T07:22:10.573Z,63.66
2023-05-16T07:23:10.542Z,63.05
2023-05-16T07:24:10.545Z,63.08
2023-05-16T07:25:10.576Z,62.81
2023-05-16T07:26:10.607Z,62.27
2023-05-16T07:27:10.606Z,62.38
2023-05-16T07:28:10.568Z,62.04
2023-05-16T07:29:10.540Z,61.99
2023-05-16T07:30:10.564Z,61.94
2023-05-16T07:31:10.631Z,62.58
2023-05-16T07:32:10.722Z,62.41
2023-05-16T07:33:12.149Z,62.37
2023-05-16T07:34:10.538Z,62.02
2023-05-16T07:35:10.536Z,61.55
2023-05-16T07:36:16.928Z,61.72
2023-05-16T07:37:11.689Z,62.97
2023-05-16T07:38:10.430Z,63.57
2023-05-16T07:39:10.413Z,63.70
2023-05-16T07:40:10.347Z,63.49
2023-05-16T07:41:10.298Z,63.31
2023-05-16T07:42:10.220Z,63.01
2023-05-16T07:43:10.251Z,62.67
2023-05-16T07:44:10.280Z,62.74
2023-05-16T07:45:10.080Z,62.96
2023-05-16T07:46:10.254Z,63.80
2023-05-16T07:47:10.721Z,64.83
2023-05-16T07:48:10.656Z,66.01
2023-05-16T07:49:09.967Z,65.95
2023-05-16T07:50:09.953Z,65.42
2023-05-16T07:51:09.794Z,65.16
2023-05-16T07:52:09.752Z,65.04
2023-05-16T07:53:09.710Z,63.97
2023-05-16T07:54:09.684Z,63.98
2023-05-16T07:55:09.669Z,64.04
2023-05-16T07:56:09.810Z,64.06
2023-05-16T07:57:09.794Z,63.97
2023-05-16T07:58:09.540Z,63.61
2023-05-16T07:59:09.589Z,63.54
2023-05-16T08:00:09.525Z,63.56
2023-05-16T08:01:09.482Z,63.34
2023-05-16T08:02:09.468Z,63.01
2023-05-16T08:03:09.506Z,62.72
2023-05-16T08:04:09.418Z,63.65
2023-05-16T08:05:09.472Z,64.38
2023-05-16T08:06:09.611Z,64.81
2023-05-16T08:07:10.233Z,64.61
2023-05-16T08:08:09.441Z,64.43
2023-05-16T08:09:09.484Z,65.54
2023-05-16T08:10:11.792Z,65.53
2023-05-16T08:11:09.350Z,65.64
2023-05-16T08:12:09.316Z,65.44
2023-05-16T08:13:10.236Z,64.97
2023-05-16T08:14:09.233Z,64.59
2023-05-16T08:15:12.162Z,63.99
2023-05-16T08:16:09.330Z,63.51
2023-05-16T08:17:09.037Z,63.30
2023-05-16T08:18:09.032Z,63.22
2023-05-16T08:19:08.932Z,62.40
2023-05-16T08:20:08.884Z,62.59
2023-05-16T08:21:09.978Z,62.77
2023-05-16T08:22:08.812Z,63.00
2023-05-16T08:23:08.791Z,62.85
2023-05-16T08:24:08.750Z,63.06
2023-05-16T08:25:08.665Z,62.80
2023-05-16T08:26:08.710Z,62.78
2023-05-16T08:27:08.525Z,62.61
2023-05-16T08:28:08.526Z,62.11
2023-05-16T08:29:08.487Z,61.86
2023-05-16T08:30:08.422Z,61.80
2023-05-16T08:31:08.401Z,62.46
2023-05-16T08:32:08.601Z,62.37
2023-05-16T08:33:08.478Z,62.06
2023-05-16T08:34:09.039Z,62.04
2023-05-16T08:35:08.267Z,62.27
2023-05-16T08:36:08.358Z,62.05
2023-05-16T08:37:08.278Z,62.45
2023-05-16T08:38:08.269Z,61.14
2023-05-16T08:39:08.369Z,61.39
2023-05-16T08:40:09.166Z,61.73
2023-05-16T08:41:09.180Z,61.50
2023-05-16T08:42:08.271Z,61.72
2023-05-16T08:43:09.103Z,62.47
2023-05-16T08:44:08.311Z,62.53
2023-05-16T08:45:08.270Z,62.20
2023-05-16T08:46:08.637Z,61.76
2023-05-16T08:47:08.238Z,61.65
2023-05-16T08:48:10.438Z,61.87
2023-05-16T08:49:08.227Z,62.31
2023-05-16T08:50:08.278Z,61.98
2023-05-16T08:51:08.052Z,61.79
2023-05-16T08:52:08.054Z,61.71
2023-05-16T08:53:07.930Z,61.08
2023-05-16T08:54:07.869Z,61.29
2023-05-16T08:55:11.432Z,61.10
2023-05-16T08:56:09.504Z,60.91
2023-05-16T08:57:07.687Z,61.37
2023-05-16T08:58:07.692Z,61.78
2023-05-16T08:59:07.894Z,62.93
2023-05-16T09:00:07.536Z,64.05
2023-05-16T09:01:07.589Z,64.45
2023-05-16T09:02:07.529Z,64.70
2023-05-16T09:03:09.005Z,64.26
2023-05-16T09:04:07.377Z,64.19
2023-05-16T09:05:07.386Z,63.96
2023-05-16T09:06:08.216Z,63.85
2023-05-16T09:07:07.164Z,63.61
2023-05-16T09:08:07.104Z,64.50
2023-05-16T09:09:07.032Z,64.84
2023-05-16T09:10:07.115Z,64.00
2023-05-16T09:11:06.894Z,63.24
2023-05-16T09:12:07.672Z,63.66
2023-05-16T09:13:06.794Z,63.86
2023-05-16T09:14:10.574Z,63.91
2023-05-16T09:15:06.665Z,63.74
2023-05-16T09:16:06.600Z,64.17
2023-05-16T09:17:06.581Z,63.83
2023-05-16T09:18:07.208Z,63.51
2023-05-16T09:19:06.408Z,64.06
2023-05-16T09:20:06.315Z,64.25
2023-05-16T09:21:06.648Z,64.10
2023-05-16T09:22:06.196Z,63.76
2023-05-16T09:23:06.169Z,63.33
2023-05-16T09:24:06.650Z,63.61
2023-05-16T09:25:08.562Z,64.31
2023-05-16T09:26:07.038Z,64.98
2023-05-16T09:27:05.906Z,64.98
2023-05-16T09:28:05.853Z,65.43
2023-05-16T09:29:05.875Z,64.84
2023-05-16T09:30:05.785Z,65.39
2023-05-16T09:31:05.832Z,65.45
2023-05-16T09:32:05.675Z,65.50
2023-05-16T09:33:05.694Z,66.16
2023-05-16T09:34:05.646Z,66.90
2023-05-16T09:35:05.529Z,67.77
2023-05-16T09:36:06.154Z,67.25
2023-05-16T09:37:05.461Z,67.18
2023-05-16T09:38:05.424Z,67.13
2023-05-16T09:39:05.437Z,67.71
2023-05-16T09:40:05.354Z,67.82
2023-05-16T09:41:05.327Z,67.88
2023-05-16T09:42:05.496Z,67.74
2023-05-16T09:43:05.223Z,67.59
2023-05-16T09:44:08.377Z,68.03
2023-05-16T09:45:05.481Z,68.73
2023-05-16T09:46:05.126Z,68.59
2023-05-16T09:47:05.012Z,68.64
2023-05-16T09:48:05.030Z,68.39
2023-05-16T09:49:04.905Z,68.13
2023-05-16T09:50:04.877Z,67.45
2023-05-16T09:51:04.853Z,67.59
2023-05-16T09:52:04.838Z,68.00
2023-05-16T09:53:04.769Z,67.91
2023-05-16T09:54:04.749Z,68.04
2023-05-16T09:55:04.667Z,67.19
2023-05-16T09:56:04.631Z,67.28
2023-05-16T09:57:04.581Z,67.51
2023-05-16T09:58:04.561Z,67.40
2023-05-16T09:59:04.493Z,67.37
2023-05-16T10:00:04.456Z,67.43
2023-05-16T10:01:04.423Z,67.37
2023-05-16T10:02:04.454Z,67.45
2023-05-16T10:03:06.114Z,67.20
2023-05-16T10:04:04.369Z,67.90
2023-05-16T10:05:05.149Z,68.50
2023-05-16T10:06:04.215Z,68.81
2023-05-16T10:07:04.155Z,68.06
2023-05-16T10:08:04.148Z,68.03
2023-05-16T10:09:04.115Z,67.75
2023-05-16T10:10:04.632Z,67.39
2023-05-16T10:11:04.094Z,67.00
2023-05-16T10:12:04.049Z,66.83
2023-05-16T10:13:04.061Z,66.67
2023-05-16T10:14:06.004Z,67.06
2023-05-16T10:15:03.975Z,67.03
2023-05-16T10:16:03.982Z,66.68
2023-05-16T10:17:06.155Z,66.92
2023-05-16T10:18:03.872Z,66.47
2023-05-16T10:19:03.737Z,67.44
2023-05-16T10:20:04.641Z,67.55
2023-05-16T10:21:05.142Z,67.59
2023-05-16T10:22:03.696Z,67.85
2023-05-16T10:23:04.680Z,68.10
2023-05-16T10:24:04.682Z,68.93
2023-05-16T10:25:03.716Z,69.19
2023-05-16T10:26:03.693Z,69.51
2023-05-16T10:27:03.729Z,69.70
2023-05-16T10:28:04.663Z,69.91
2023-05-16T10:29:03.703Z,69.94
2023-05-16T10:30:03.719Z,70.37
2023-05-16T10:31:03.954Z,70.49
2023-05-16T10:32:03.727Z,70.35
2023-05-16T10:33:04.171Z,70.19
2023-05-16T10:34:04.164Z,69.46
2023-05-16T10:35:03.575Z,69.21
2023-05-16T10:36:03.490Z,70.12
2023-05-16T10:37:03.454Z,69.82
2023-05-16T10:38:04.131Z,69.60
2023-05-16T10:39:03.391Z,67.93
2023-05-16T10:40:03.267Z,68.26
2023-05-16T10:41:03.352Z,68.22
2023-05-16T10:42:03.297Z,68.17
2023-05-16T10:43:03.177Z,68.20
2023-05-16T10:44:03.077Z,67.96
2023-05-16T10:46:03.034Z,68.57
2023-05-16T10:47:02.969Z,68.26
2023-05-16T10:48:03.041Z,68.03
2023-05-16T10:49:02.964Z,68.07
2023-05-16T10:50:03.065Z,68.47
2023-05-16T10:51:03.158Z,67.93
2023-05-16T10:52:02.971Z,67.55
2023-05-16T10:53:03.096Z,67.28
2023-05-16T10:54:02.953Z,67.36
2023-05-16T10:55:02.975Z,67.04
2023-05-16T10:56:02.933Z,67.10
2023-05-16T10:57:02.853Z,67.06
2023-05-16T10:58:02.892Z,67.09
2023-05-16T10:59:02.785Z,66.80
2023-05-16T11:00:03.754Z,66.57
2023-05-16T11:01:02.740Z,66.14
2023-05-16T11:02:02.697Z,65.95
2023-05-16T11:03:02.584Z,65.84
2023-05-16T11:04:02.806Z,65.89
2023-05-16T11:05:02.437Z,65.83
2023-05-16T11:06:02.363Z,65.80
2023-05-16T11:07:02.373Z,65.74
2023-05-16T11:08:02.287Z,66.06
2023-05-16T11:09:02.239Z,66.11
2023-05-16T11:10:02.192Z,65.58
2023-05-16T11:11:02.147Z,65.20
2023-05-16T11:12:02.054Z,65.00
2023-05-16T11:13:02.017Z,64.64
2023-05-16T11:14:01.938Z,64.61
2023-05-16T11:15:02.666Z,64.38
2023-05-16T11:16:02.692Z,63.96
2023-05-16T11:17:01.851Z,64.09
2023-05-16T11:18:01.757Z,64.14
2023-05-16T11:19:02.190Z,63.91
2023-05-16T11:20:01.596Z,64.72
2023-05-16T11:21:01.558Z,65.62
2023-05-16T11:22:01.521Z,66.04
2023-05-16T11:23:01.495Z,66.46
2023-05-16T11:24:01.436Z,66.30
2023-05-16T11:25:01.389Z,66.67
2023-05-16T11:26:01.362Z,66.29
2023-05-16T11:27:01.663Z,66.16
2023-05-16T11:28:02.271Z,66.77
2023-05-16T11:29:01.186Z,67.01
2023-05-16T11:30:03.786Z,67.21
2023-05-16T11:31:01.234Z,67.35
2023-05-16T11:32:01.060Z,66.70
2023-05-16T11:33:01.139Z,66.55
2023-05-16T11:34:00.992Z,66.49
2023-05-16T11:35:01.048Z,66.34
2023-05-16T11:36:13.993Z,66.38
2023-05-16T11:37:01.829Z,66.14
2023-05-16T11:38:00.855Z,65.71
2023-05-16T11:39:00.710Z,65.61
2023-05-16T11:40:00.879Z,65.46
2023-05-16T11:41:00.592Z,64.95
2023-05-16T11:42:00.563Z,64.90
2023-05-16T11:43:00.490Z,64.51
2023-05-16T11:44:00.566Z,64.55
2023-05-16T11:45:00.432Z,64.41
2023-05-16T11:46:00.401Z,64.28
2023-05-16T11:47:00.440Z,63.99
2023-05-16T11:48:00.284Z,63.69
2023-05-16T11:49:00.144Z,63.49
2023-05-16T11:50:00.203Z,63.19
2023-05-16T11:51:00.752Z,63.41
2023-05-16T11:52:00.729Z,63.77
2023-05-16T11:53:02.073Z,63.28
2023-05-16T11:53:59.995Z,64.81
2023-05-16T11:55:00.181Z,65.56
2023-05-16T11:55:59.928Z,65.95
2023-05-16T11:56:59.992Z,65.51
2023-05-16T11:57:59.923Z,64.73
2023-05-16T11:59:00.118Z,65.31
2023-05-16T11:59:59.910Z,65.27
2023-05-16T12:00:59.847Z,65.05
2023-05-16T12:01:59.939Z,65.00
2023-05-16T12:03:00.014Z,64.27
2023-05-16T12:03:59.795Z,63.68
2023-05-16T12:04:59.821Z,63.59
2023-05-16T12:05:59.632Z,63.68
2023-05-16T12:06:59.613Z,62.82
2023-05-16T12:07:59.568Z,63.34
2023-05-16T12:08:59.551Z,63.40
2023-05-16T12:10:00.268Z,63.11
2023-05-16T12:10:59.418Z,63.08
2023-05-16T12:11:59.456Z,62.48
2023-05-16T12:12:59.359Z,61.86
2023-05-16T12:13:59.329Z,62.38
2023-05-16T12:14:59.290Z,61.99
2023-05-16T12:15:59.472Z,61.64
2023-05-16T12:16:59.456Z,61.54
2023-05-16T12:17:59.284Z,61.68
2023-05-16T12:18:59.178Z,61.15
2023-05-16T12:20:02.204Z,60.94
2023-05-16T12:20:59.127Z,61.01
2023-05-16T12:21:59.064Z,60.91
2023-05-16T12:22:59.078Z,60.85
2023-05-16T12:23:58.868Z,60.68
2023-05-16T12:24:59.677Z,60.90
2023-05-16T12:25:58.696Z,61.43
2023-05-16T12:26:58.661Z,60.92
2023-05-16T12:27:58.564Z,62.36
2023-05-16T12:28:58.715Z,63.46
2023-05-16T12:29:58.429Z,63.44
2023-05-16T12:30:58.333Z,63.69
2023-05-16T12:31:58.919Z,63.52
2023-05-16T12:32:58.577Z,62.85
2023-05-16T12:33:58.100Z,62.82
2023-05-16T12:34:58.030Z,63.24
2023-05-16T12:35:57.966Z,63.76
2023-05-16T12:36:57.897Z,63.86
2023-05-16T12:37:57.848Z,63.97
2023-05-16T12:38:57.755Z,64.46
2023-05-16T12:39:57.694Z,64.05
2023-05-16T12:40:57.612Z,64.02
2023-05-16T12:41:57.561Z,63.83
2023-05-16T12:42:57.540Z,64.10
2023-05-16T12:43:57.427Z,63.82
2023-05-16T12:44:57.627Z,63.73
2023-05-16T12:45:57.398Z,63.70
2023-05-16T12:46:57.276Z,62.91
2023-05-16T12:47:57.230Z,63.31
2023-05-16T12:48:57.133Z,63.76
2023-05-16T12:49:57.035Z,64.35
2023-05-16T12:50:56.958Z,64.29
2023-05-16T12:51:56.890Z,65.02
2023-05-16T12:52:56.838Z,64.96
2023-05-16T12:54:09.343Z,65.08
2023-05-16T12:54:57.764Z,64.97
2023-05-16T12:55:56.658Z,64.98